createdAt,value
2023-05-05T03:51:14.152Z,97637.97
2023-05-05T03:54:18.280Z,97637.16
2023-05-05T03:57:22.547Z,97645.53
2023-05-05T04:00:29.539Z,97641.72
2023-05-05T04:03:33.678Z,97641.44
2023-05-05T04:06:39.606Z,97636.03
2023-05-05T04:09:43.654Z,97632.16
2023-05-05T04:12:47.771Z,97635.16
2023-05-05T04:15:52.942Z,97626.91
2023-05-05T04:18:56.590Z,97622.34
2023-05-05T04:22:01.816Z,97614.91
2023-05-05T04:25:07.325Z,97628.69
2023-05-05T04:28:11.688Z,97627.72
2023-05-05T04:31:15.423Z,97635.00
2023-05-05T04:34:19.337Z,97630.81
2023-05-05T04:37:23.409Z,97616.06
2023-05-05T04:40:27.462Z,97616.06
2023-05-05T04:43:34.684Z,97613.75
2023-05-05T04:46:38.898Z,97608.31
2023-05-05T04:49:42.830Z,97617.72
2023-05-05T04:52:46.873Z,97609.50
2023-05-05T04:55:50.921Z,97613.78
2023-05-05T04:58:54.821Z,97620.19
2023-05-05T05:05:20.646Z,97626.38
2023-05-05T05:08:24.773Z,97616.91
2023-05-05T05:11:29.175Z,97616.66
2023-05-05T05:14:33.234Z,97614.84
2023-05-05T05:17:36.972Z,97612.47
2023-05-05T05:20:40.800Z,97611.94
2023-05-05T05:23:44.608Z,97609.75
2023-05-05T05:26:48.809Z,97620.25
2023-05-05T05:29:52.846Z,97626.94
2023-05-05T05:33:05.373Z,97629.56
2023-05-05T05:36:09.411Z,97629.38
2023-05-05T05:39:19.139Z,97635.41
2023-05-05T05:42:23.346Z,97634.53
2023-05-05T05:46:34.529Z,97644.38
2023-05-05T05:49:11.761Z,97650.50
2023-05-05T06:02:21.150Z,97653.19
2023-05-05T06:05:25.054Z,97651.75
2023-05-05T06:11:44.827Z,97640.47
2023-05-05T11:09:56.489Z,97510.00
2023-05-05T11:20:19.580Z,97499.19
2023-05-05T11:30:37.484Z,97496.25
2023-05-05T11:37:00.510Z,97481.69
2023-05-05T11:50:22.145Z,97477.53
2023-05-05T11:53:36.803Z,97476.44
2023-05-05T11:59:58.860Z,97477.53
2023-05-05T12:03:07.150Z,97472.28
2023-05-05T12:06:24.418Z,97460.50
2023-05-05T12:09:31.772Z,97458.91
2023-05-05T12:12:37.259Z,97455.19
2023-05-05T12:44:21.662Z,97437.28
2023-05-05T12:57:33.565Z,97423.69
2023-05-05T13:07:44.268Z,97393.56
2023-05-05T13:10:45.726Z,97389.19
2023-05-05T13:27:56.545Z,97364.59
2023-05-05T13:31:13.633Z,97364.81
2023-05-05T13:34:20.296Z,97367.78
2023-05-05T13:37:37.832Z,97361.00
2023-05-05T13:44:34.387Z,97357.84
2023-05-05T13:47:32.542Z,97358.16
2023-05-05T13:51:19.697Z,97344.19
2023-05-05T13:54:24.826Z,97337.47
2023-05-05T13:57:30.329Z,97336.69
2023-05-05T14:00:42.247Z,97332.31
2023-05-05T14:03:46.614Z,97338.78
2023-05-05T14:10:19.917Z,97341.16
2023-05-05T14:16:57.544Z,97343.66
2023-05-05T14:30:27.196Z,97322.09
2023-05-05T14:37:18.856Z,97317.75
2023-05-05T14:43:40.685Z,97323.13
2023-05-05T14:46:46.521Z,97318.00
2023-05-05T14:49:53.340Z,97330.88
2023-05-05T15:00:02.675Z,97326.66
2023-05-05T15:03:13.172Z,97321.91
2023-05-05T15:09:53.584Z,97329.03
2023-05-05T15:12:59.891Z,97338.56
2023-05-05T15:16:06.946Z,97337.91
2023-05-05T15:19:12.647Z,97338.06
2023-05-05T15:22:18.017Z,97338.13
2023-05-05T15:25:38.201Z,97329.94
2023-05-05T15:28:51.277Z,97339.88
2023-05-05T15:31:58.727Z,97334.41
2023-05-05T15:35:03.163Z,97332.22
2023-05-05T15:38:30.725Z,97340.06
2023-05-05T15:41:34.408Z,97337.66
2023-05-05T15:44:49.070Z,97329.38
2023-05-05T15:47:53.444Z,97325.09
2023-05-05T15:51:15.757Z,97335.22
2023-05-05T15:54:19.764Z,97341.03
2023-05-05T15:57:26.049Z,97342.56
2023-05-05T16:00:29.853Z,97346.69
2023-05-05T16:03:52.512Z,97352.06
2023-05-05T16:06:56.536Z,97338.16
2023-05-05T16:10:03.134Z,97347.88
2023-05-05T16:13:07.262Z,97347.91
2023-05-05T16:16:11.472Z,97347.25
2023-05-05T16:19:15.434Z,97354.84
2023-05-05T16:22:19.658Z,97353.44
2023-05-05T16:25:23.788Z,97344.16
2023-05-05T16:28:29.086Z,97347.31
2023-05-05T16:31:33.313Z,97351.22
2023-05-05T16:34:36.882Z,97349.31
2023-05-05T16:37:42.181Z,97356.22
2023-05-05T16:40:46.416Z,97358.94
2023-05-05T16:43:50.175Z,97351.53
2023-05-05T16:46:54.463Z,97356.47
2023-05-05T16:49:58.504Z,97356.66
2023-05-05T16:53:02.714Z,97349.63
2023-05-05T16:56:06.640Z,97356.22
2023-05-05T16:59:10.855Z,97350.03
2023-05-05T17:02:14.658Z,97347.31
2023-05-05T17:05:18.820Z,97342.78
2023-05-05T17:08:22.789Z,97344.28
2023-05-05T17:11:26.742Z,97344.41
2023-05-05T17:14:30.642Z,97345.88
2023-05-05T17:17:34.258Z,97347.31
2023-05-05T17:20:38.326Z,97344.63
2023-05-05T17:23:42.630Z,97351.47
2023-05-05T17:26:46.440Z,97348.41
2023-05-05T17:29:50.255Z,97347.13
2023-05-05T17:32:54.733Z,97356.41
2023-05-05T17:35:59.107Z,97359.47
2023-05-05T17:39:12.873Z,97359.09
2023-05-05T17:45:39.929Z,97372.91
2023-05-05T17:48:43.900Z,97375.38
2023-05-05T17:51:48.093Z,97374.13
2023-05-05T17:58:14.009Z,97376.81
2023-05-05T18:01:17.854Z,97388.31
2023-05-05T18:04:21.683Z,97398.94
2023-05-05T18:07:25.976Z,97394.50
2023-05-05T18:10:29.782Z,97404.53
2023-05-05T18:13:35.531Z,97404.69
2023-05-05T18:16:40.372Z,97410.22
2023-05-05T18:19:47.803Z,97408.38
2023-05-05T18:22:53.297Z,97421.06
2023-05-05T18:25:57.124Z,97422.34
2023-05-05T18:32:23.237Z,97428.69
2023-05-05T18:35:28.611Z,97433.63
2023-05-05T18:38:32.655Z,97435.13
2023-05-05T18:41:36.508Z,97431.09
2023-05-05T18:44:40.547Z,97425.22
2023-05-05T18:47:44.373Z,97425.63
2023-05-05T18:50:48.858Z,97426.97
2023-05-05T18:53:52.874Z,97425.16
2023-05-05T18:56:56.855Z,97424.03
2023-05-05T19:00:01.051Z,97420.84
2023-05-05T19:03:07.701Z,97435.31
2023-05-05T19:06:12.000Z,97434.78
2023-05-05T19:09:18.087Z,97434.75
2023-05-05T19:12:21.913Z,97440.84
2023-05-05T19:15:25.993Z,97445.59
2023-05-05T19:18:30.305Z,97447.06
2023-05-05T19:21:37.667Z,97442.53
2023-05-05T19:24:41.626Z,97442.97
2023-05-05T19:27:45.741Z,97448.69
2023-05-05T19:30:51.815Z,97450.63
2023-05-05T19:33:55.793Z,97453.41
2023-05-05T19:37:00.052Z,97450.91
2023-05-05T19:40:04.492Z,97451.06
2023-05-05T19:43:08.710Z,97465.84
2023-05-05T19:46:12.569Z,97465.03
2023-05-05T19:49:16.598Z,97465.69
2023-05-05T19:52:21.530Z,97464.91
2023-05-05T19:55:25.355Z,97461.91
2023-05-05T19:58:29.346Z,97462.56
2023-05-05T20:01:33.276Z,97465.56
2023-05-05T20:07:59.461Z,97467.28
2023-05-05T20:11:04.380Z,97462.88
2023-05-05T20:14:08.352Z,97465.28
2023-05-05T20:17:12.200Z,97466.84
2023-05-05T20:20:16.489Z,97462.81
2023-05-05T20:23:21.940Z,97465.88
2023-05-05T20:26:27.499Z,97463.25
2023-05-05T20:29:35.676Z,97463.34
2023-05-05T20:32:43.223Z,97461.09
2023-05-05T20:35:47.117Z,97474.06
2023-05-05T20:38:51.288Z,97469.84
2023-05-05T20:41:54.955Z,97457.44
2023-05-05T20:44:58.890Z,97460.16
2023-05-05T20:48:02.645Z,97462.22
2023-05-05T20:51:06.577Z,97477.09
2023-05-05T20:54:10.772Z,97479.16
2023-05-05T20:57:14.806Z,97483.72
2023-05-05T21:00:20.261Z,97479.97
2023-05-05T21:03:24.448Z,97478.66
2023-05-05T21:06:28.247Z,97480.00
2023-05-05T21:09:31.991Z,97479.31
2023-05-05T21:12:36.138Z,97477.69
2023-05-05T21:15:40.334Z,97470.25
2023-05-05T21:18:44.402Z,97473.47
2023-05-05T21:21:48.593Z,97471.78
2023-05-05T21:24:52.512Z,97467.56
2023-05-05T21:27:56.485Z,97462.88
2023-05-05T21:31:20.515Z,97464.16
2023-05-05T21:34:24.580Z,97464.84
2023-05-05T21:37:28.278Z,97461.50
2023-05-05T21:40:32.869Z,97462.06
2023-05-05T21:43:36.850Z,97461.28
2023-05-05T21:46:41.260Z,97469.28
2023-05-05T21:49:45.877Z,97479.97
2023-05-05T21:52:52.166Z,97483.88
2023-05-05T21:55:56.345Z,97492.00
2023-05-05T21:59:00.327Z,97485.72
2023-05-05T22:02:04.317Z,97477.75
2023-05-05T22:05:08.249Z,97460.53
2023-05-05T22:08:12.307Z,97456.78
2023-05-05T22:11:16.311Z,97448.25
2023-05-05T22:14:20.116Z,97443.56
2023-05-05T22:17:25.221Z,97448.13
2023-05-05T22:20:29.381Z,97442.25
2023-05-05T22:23:33.137Z,97443.94
2023-05-05T22:26:37.065Z,97447.69
2023-05-05T22:29:40.878Z,97447.94
2023-05-05T22:32:44.834Z,97448.28
2023-05-05T22:35:48.667Z,97446.50
2023-05-05T22:38:52.357Z,97447.50
2023-05-05T22:41:56.737Z,97450.63
2023-05-05T22:45:00.841Z,97450.41
2023-05-05T22:48:05.737Z,97447.81
2023-05-05T22:51:09.876Z,97447.63
2023-05-05T22:54:18.034Z,97454.06
2023-05-05T22:57:22.187Z,97454.28
2023-05-05T23:00:26.162Z,97444.25
2023-05-05T23:03:32.126Z,97459.78
2023-05-05T23:06:36.172Z,97449.44
2023-05-05T23:09:42.206Z,97439.69
2023-05-05T23:12:46.236Z,97450.44
2023-05-05T23:15:50.027Z,97441.97
2023-05-05T23:18:54.185Z,97453.13
2023-05-05T23:21:58.106Z,97452.25
2023-05-05T23:25:02.178Z,97447.84
2023-05-05T23:28:07.693Z,97445.91
2023-05-05T23:31:11.696Z,97451.78
2023-05-05T23:34:15.770Z,97474.47
2023-05-05T23:37:19.510Z,97464.81
2023-05-05T23:40:23.764Z,97456.31
2023-05-05T23:43:27.957Z,97458.41
2023-05-05T23:46:32.476Z,97451.72
2023-05-05T23:49:36.234Z,97454.31
2023-05-05T23:56:02.187Z,97446.41
2023-05-05T23:59:06.282Z,97449.41
